createdAt,value
2022-11-30T00:01:19.524Z,33.70
2022-11-30T00:03:46.508Z,31.73
2022-11-30T00:06:16.394Z,35.47
2022-11-30T00:08:43.209Z,32.17
2022-11-30T00:11:14.818Z,33.53
2022-11-30T00:13:42.158Z,34.20
2022-11-30T00:16:09.814Z,32.80
2022-11-30T00:18:37.480Z,32.03
2022-11-30T00:21:06.347Z,31.67
2022-11-30T00:23:34.400Z,33.63
2022-11-30T00:26:05.943Z,32.97
2022-11-30T00:28:33.655Z,32.23
2022-11-30T00:31:02.200Z,31.47
2022-11-30T00:33:29.485Z,34.63
2022-11-30T00:36:01.195Z,35.50
2022-11-30T00:38:27.698Z,34.10
2022-11-30T00:40:54.421Z,32.93
2022-11-30T00:43:21.017Z,34.90
2022-11-30T00:45:47.521Z,34.17
2022-11-30T00:48:13.983Z,33.80
2022-11-30T00:50:40.958Z,32.97
2022-11-30T00:53:07.384Z,35.10
2022-11-30T00:55:33.965Z,33.47
2022-11-30T00:58:01.233Z,32.67
2022-11-30T01:00:28.781Z,33.23
2022-11-30T01:02:56.100Z,35.17
2022-11-30T01:05:22.688Z,31.23
2022-11-30T01:07:49.205Z,33.77
2022-11-30T01:10:15.909Z,36.00
2022-11-30T01:12:42.355Z,34.13
2022-11-30T01:15:09.274Z,33.53
2022-11-30T01:17:35.710Z,31.00
2022-11-30T01:20:02.179Z,34.00
2022-11-30T01:22:29.230Z,32.03
2022-11-30T01:24:55.710Z,33.23
2022-11-30T01:27:22.187Z,34.00
2022-11-30T01:29:48.629Z,34.47
2022-11-30T01:32:15.103Z,33.43
2022-11-30T01:34:41.561Z,34.27
2022-11-30T01:37:08.070Z,34.47
2022-11-30T01:39:34.506Z,35.03
2022-11-30T01:42:01.001Z,35.13
2022-11-30T01:44:27.417Z,32.70
2022-11-30T01:46:59.028Z,33.73
2022-11-30T01:49:41.883Z,34.37
2022-11-30T01:52:19.929Z,35.37
2022-11-30T01:54:51.392Z,36.47
2022-11-30T01:57:25.448Z,36.87
2022-11-30T01:59:55.006Z,37.27
2022-11-30T02:02:32.874Z,35.70
2022-11-30T02:05:00.035Z,36.50
2022-11-30T02:07:27.241Z,37.10
2022-11-30T02:09:53.736Z,34.10
2022-11-30T02:12:39.087Z,36.50
2022-11-30T02:15:11.263Z,33.67
2022-11-30T02:17:57.019Z,35.53
2022-11-30T02:20:55.848Z,36.00
2022-11-30T02:23:32.089Z,31.93
2022-11-30T02:26:19.272Z,33.63
2022-11-30T02:29:06.777Z,33.53
2022-11-30T02:31:41.848Z,35.07
2022-11-30T02:34:10.858Z,35.20
2022-11-30T02:36:37.701Z,33.83
2022-11-30T02:39:05.788Z,35.57
2022-11-30T02:41:38.256Z,35.37
2022-11-30T02:44:06.579Z,34.50
2022-11-30T02:46:44.300Z,32.27
2022-11-30T02:49:25.898Z,33.83
2022-11-30T02:51:55.012Z,32.67
2022-11-30T02:54:21.724Z,35.60
2022-11-30T02:56:48.154Z,34.73
2022-11-30T02:59:14.850Z,35.90
2022-11-30T03:01:42.531Z,34.23
2022-11-30T03:04:09.143Z,32.87
2022-11-30T03:06:35.674Z,33.43
2022-11-30T03:09:02.198Z,36.93
2022-11-30T03:11:28.642Z,36.00
2022-11-30T03:13:55.091Z,35.07
2022-11-30T03:16:21.579Z,35.80
2022-11-30T03:18:48.061Z,36.13
2022-11-30T03:21:14.603Z,36.83
2022-11-30T03:23:41.224Z,34.73
2022-11-30T03:26:09.142Z,36.20
2022-11-30T03:28:36.812Z,36.63
2022-11-30T03:31:03.532Z,35.03
2022-11-30T03:33:30.060Z,33.70
2022-11-30T03:36:07.534Z,36.23
2022-11-30T03:38:34.794Z,36.67
2022-11-30T03:41:02.808Z,35.17
2022-11-30T03:43:29.739Z,34.47
2022-11-30T03:45:56.185Z,35.53
2022-11-30T03:48:23.242Z,37.33
2022-11-30T03:50:50.305Z,35.50
2022-11-30T03:53:21.906Z,37.57
2022-11-30T03:56:00.324Z,36.97
2022-11-30T03:58:27.202Z,36.97
2022-11-30T04:01:07.348Z,36.00
2022-11-30T04:03:34.741Z,36.93
2022-11-30T04:06:02.245Z,36.63
2022-11-30T04:08:29.053Z,35.17
2022-11-30T04:10:57.106Z,36.97
2022-11-30T04:13:24.660Z,36.80
2022-11-30T04:15:52.313Z,36.80
2022-11-30T04:18:20.488Z,37.10
2022-11-30T04:20:47.028Z,39.73
2022-11-30T04:23:13.485Z,37.93
2022-11-30T04:25:41.284Z,37.67
2022-11-30T04:28:08.655Z,36.23
2022-11-30T04:30:36.829Z,35.83
2022-11-30T04:33:04.389Z,35.07
2022-11-30T04:35:30.964Z,39.77
2022-11-30T04:37:57.413Z,42.23
2022-11-30T04:40:23.990Z,38.63
2022-11-30T04:42:50.413Z,37.60
2022-11-30T04:45:16.983Z,36.23
2022-11-30T04:47:43.481Z,35.00
2022-11-30T04:50:12.223Z,36.93
2022-11-30T04:52:38.653Z,34.83
2022-11-30T04:55:05.654Z,37.27
2022-11-30T04:57:32.127Z,36.03
2022-11-30T04:59:58.649Z,36.63
2022-11-30T05:02:25.114Z,35.70
2022-11-30T05:04:51.831Z,41.93
2022-11-30T05:07:18.585Z,40.83
2022-11-30T05:09:45.118Z,35.73
2022-11-30T05:12:11.602Z,33.13
2022-11-30T05:14:38.385Z,35.40
2022-11-30T05:17:04.950Z,34.33
2022-11-30T05:19:31.366Z,36.57
2022-11-30T05:21:57.805Z,35.77
2022-11-30T05:24:24.296Z,35.07
2022-11-30T05:26:50.742Z,35.87
2022-11-30T05:29:17.159Z,35.50
2022-11-30T05:31:43.650Z,37.10
2022-11-30T05:34:10.524Z,34.33
2022-11-30T05:36:36.975Z,35.93
2022-11-30T05:39:03.831Z,35.73
2022-11-30T05:41:30.275Z,35.67
2022-11-30T05:43:56.807Z,35.20
2022-11-30T05:46:23.726Z,35.90
2022-11-30T05:48:50.261Z,36.50
2022-11-30T05:51:18.672Z,35.63
2022-11-30T05:53:45.731Z,37.77
2022-11-30T05:56:15.155Z,35.73
2022-11-30T05:58:41.916Z,37.17
2022-11-30T06:01:16.659Z,36.27
2022-11-30T06:03:43.144Z,37.13
2022-11-30T06:06:09.567Z,36.90
2022-11-30T06:08:35.995Z,38.50
2022-11-30T06:11:02.984Z,35.17
2022-11-30T06:13:29.506Z,36.60
2022-11-30T06:15:59.425Z,35.23
2022-11-30T06:18:26.216Z,35.73
2022-11-30T06:20:52.790Z,35.07
2022-11-30T06:23:19.262Z,35.47
2022-11-30T06:25:45.789Z,36.10
2022-11-30T06:28:13.433Z,34.30
2022-11-30T06:30:39.878Z,34.13
2022-11-30T06:33:06.748Z,37.40
2022-11-30T06:35:33.304Z,33.87
2022-11-30T06:38:00.647Z,36.03
2022-11-30T06:40:27.997Z,34.40
2022-11-30T06:42:54.943Z,37.40
2022-11-30T06:45:21.423Z,34.63
2022-11-30T06:47:47.905Z,36.20
2022-11-30T06:50:15.166Z,38.17
2022-11-30T06:52:41.644Z,36.70
2022-11-30T06:55:08.358Z,38.13
2022-11-30T06:57:35.091Z,38.83
2022-11-30T07:00:01.681Z,38.07
2022-11-30T07:02:28.171Z,34.73
2022-11-30T07:04:54.583Z,34.97
2022-11-30T07:07:21.500Z,34.20
2022-11-30T07:09:48.012Z,36.67
2022-11-30T07:12:14.505Z,34.90
2022-11-30T07:14:40.931Z,35.33
2022-11-30T07:17:07.392Z,36.00
2022-11-30T07:19:37.042Z,33.77
2022-11-30T07:22:03.594Z,34.13
2022-11-30T07:24:48.809Z,34.30
2022-11-30T07:27:15.435Z,31.93
2022-11-30T07:29:41.877Z,34.17
2022-11-30T07:32:08.417Z,32.53
2022-11-30T07:34:34.932Z,36.20
2022-11-30T07:37:01.385Z,30.90
2022-11-30T07:39:27.958Z,31.47
2022-11-30T07:41:54.393Z,33.10
2022-11-30T07:44:20.846Z,32.07
2022-11-30T07:46:47.433Z,30.77
2022-11-30T07:49:13.940Z,29.83
2022-11-30T07:51:40.463Z,31.17
2022-11-30T07:54:07.009Z,31.67
2022-11-30T07:56:33.541Z,32.00
2022-11-30T07:59:01.600Z,31.73
2022-11-30T08:01:31.422Z,29.83
2022-11-30T08:03:58.820Z,32.57
2022-11-30T08:06:27.956Z,31.70
2022-11-30T08:08:57.116Z,31.73
2022-11-30T08:11:26.162Z,30.90
2022-11-30T08:13:53.323Z,29.67
2022-11-30T08:16:32.307Z,27.50
2022-11-30T08:18:58.776Z,28.40
2022-11-30T08:21:25.574Z,27.53
2022-11-30T08:23:56.748Z,28.57
2022-11-30T08:26:26.449Z,27.57
2022-11-30T08:28:53.406Z,26.33
2022-11-30T08:31:39.653Z,28.20
2022-11-30T08:34:09.435Z,26.60
2022-11-30T08:36:35.940Z,27.47
2022-11-30T08:39:05.001Z,26.23
2022-11-30T08:41:32.041Z,28.13
2022-11-30T08:43:58.533Z,27.00
2022-11-30T08:46:50.332Z,24.87
2022-11-30T08:49:21.490Z,25.83
2022-11-30T08:54:46.478Z,23.67
2022-11-30T08:57:17.808Z,25.30
2022-11-30T08:59:44.767Z,26.13
2022-11-30T09:02:14.103Z,26.13
2022-11-30T09:04:40.737Z,24.67
2022-11-30T09:07:07.363Z,24.10
2022-11-30T09:09:33.808Z,25.23
2022-11-30T09:12:00.339Z,24.73
2022-11-30T09:14:26.821Z,24.50
2022-11-30T09:16:54.051Z,23.77
2022-11-30T09:19:21.339Z,23.63
2022-11-30T09:21:51.953Z,23.97
2022-11-30T09:24:18.968Z,22.87
2022-11-30T09:26:45.378Z,25.20
2022-11-30T09:29:11.841Z,22.97
2022-11-30T09:31:38.324Z,22.97
2022-11-30T09:34:04.879Z,23.03
2022-11-30T09:36:32.997Z,22.63
2022-11-30T09:38:59.521Z,23.10
2022-11-30T09:41:28.856Z,22.67
2022-11-30T09:44:20.315Z,23.77
2022-11-30T09:46:53.104Z,24.33
2022-11-30T09:49:24.364Z,22.40
2022-11-30T09:51:52.622Z,22.87
2022-11-30T09:54:35.521Z,22.23
2022-11-30T09:57:12.511Z,22.87
2022-11-30T09:59:46.094Z,21.50
2022-11-30T10:02:18.972Z,21.33
2022-11-30T10:04:45.881Z,21.87
2022-11-30T10:07:26.410Z,23.63
2022-11-30T10:10:30.899Z,21.53
2022-11-30T10:13:15.945Z,23.10
2022-11-30T10:15:58.117Z,23.53
2022-11-30T10:18:54.160Z,22.77
2022-11-30T10:21:32.746Z,21.77
2022-11-30T10:24:05.346Z,23.07
2022-11-30T10:26:38.227Z,22.53
2022-11-30T10:29:17.870Z,22.27
2022-11-30T10:31:46.488Z,19.50
2022-11-30T10:34:20.509Z,19.63
2022-11-30T10:37:12.915Z,21.17
2022-11-30T10:39:57.156Z,22.20
2022-11-30T10:42:35.294Z,22.33
2022-11-30T10:45:04.859Z,21.73
2022-11-30T10:47:37.098Z,22.57
2022-11-30T10:50:06.082Z,22.10
2022-11-30T10:52:42.787Z,21.27
2022-11-30T10:55:21.434Z,22.27
2022-11-30T10:57:51.060Z,22.23
2022-11-30T11:00:18.297Z,22.10
2022-11-30T11:02:46.881Z,22.30
2022-11-30T11:05:25.506Z,22.47
2022-11-30T11:08:06.333Z,22.47
2022-11-30T11:10:45.223Z,22.87
2022-11-30T11:13:39.042Z,22.17
2022-11-30T11:16:09.505Z,22.13
2022-11-30T11:18:37.830Z,21.47
2022-11-30T11:21:07.548Z,23.30
2022-11-30T11:23:39.904Z,26.33
2022-11-30T11:26:22.581Z,23.13
2022-11-30T11:28:51.582Z,20.63
2022-11-30T11:31:44.233Z,22.53
2022-11-30T11:34:31.729Z,20.07
2022-11-30T11:37:31.086Z,21.20
2022-11-30T11:40:05.709Z,21.83
2022-11-30T11:42:36.901Z,20.53
2022-11-30T11:45:06.017Z,20.03
2022-11-30T11:47:40.654Z,19.57
2022-11-30T11:53:23.162Z,20.00
2022-11-30T11:55:57.417Z,21.37
2022-11-30T11:58:34.154Z,21.00
2022-11-30T12:01:31.693Z,18.93
2022-11-30T12:04:17.221Z,18.57
2022-11-30T12:06:45.456Z,19.87
2022-11-30T12:09:19.745Z,19.87
2022-11-30T12:11:48.859Z,19.00
2022-11-30T12:14:19.341Z,18.13
2022-11-30T12:17:15.158Z,21.20
2022-11-30T12:19:59.929Z,19.97
2022-11-30T12:22:51.435Z,19.63
2022-11-30T12:25:36.395Z,21.47
2022-11-30T12:28:11.666Z,20.27
2022-11-30T12:30:41.059Z,20.97
2022-11-30T12:33:39.899Z,20.40
2022-11-30T12:36:48.299Z,19.93
2022-11-30T12:39:41.167Z,20.33
2022-11-30T12:42:18.213Z,20.97
2022-11-30T12:45:11.233Z,20.83
2022-11-30T12:47:53.899Z,21.83
2022-11-30T12:50:54.106Z,22.47
2022-11-30T12:53:20.495Z,21.40
2022-11-30T12:56:06.214Z,22.23
2022-11-30T12:58:47.193Z,39.17
2022-11-30T13:01:37.944Z,31.00
2022-11-30T13:04:28.468Z,23.03
2022-11-30T13:07:25.796Z,22.67
2022-11-30T13:10:00.620Z,24.07
2022-11-30T13:12:37.152Z,22.47
2022-11-30T13:15:15.779Z,23.67
2022-11-30T13:17:43.891Z,23.53
2022-11-30T13:20:36.739Z,23.83
2022-11-30T13:23:15.298Z,25.00
2022-11-30T13:26:07.937Z,24.53
2022-11-30T13:28:41.096Z,26.97
2022-11-30T13:31:28.451Z,26.87
2022-11-30T13:33:55.041Z,26.27
2022-11-30T13:36:23.058Z,28.73
2022-11-30T13:39:29.816Z,27.07
2022-11-30T13:42:02.963Z,27.10
2022-11-30T13:44:32.092Z,29.00
2022-11-30T13:47:00.328Z,26.23
2022-11-30T13:49:33.351Z,26.87
2022-11-30T13:52:22.205Z,26.60
2022-11-30T13:54:51.346Z,26.47
2022-11-30T13:57:30.130Z,28.73
2022-11-30T14:00:31.375Z,29.20
2022-11-30T14:03:21.097Z,28.67
2022-11-30T14:05:53.647Z,30.37
2022-11-30T14:08:22.736Z,31.73
2022-11-30T14:10:51.843Z,32.37
2022-11-30T14:13:22.777Z,29.70
2022-11-30T14:16:29.791Z,29.93
2022-11-30T14:18:57.032Z,32.57
2022-11-30T14:21:32.759Z,30.53
2022-11-30T14:24:04.114Z,31.47
2022-11-30T14:26:37.006Z,31.90
2022-11-30T14:29:09.164Z,33.03
2022-11-30T14:31:58.614Z,32.07
2022-11-30T14:34:32.327Z,32.43
2022-11-30T14:37:03.954Z,32.87
2022-11-30T14:39:37.082Z,29.73
2022-11-30T14:42:05.790Z,33.47
2022-11-30T14:44:40.831Z,31.87
2022-11-30T14:47:16.361Z,33.33
2022-11-30T14:49:56.292Z,31.43
2022-11-30T14:52:44.078Z,32.20
2022-11-30T14:55:29.893Z,31.87
2022-11-30T14:58:18.238Z,34.77
2022-11-30T15:00:45.634Z,31.53
2022-11-30T15:03:28.656Z,33.70
2022-11-30T15:06:00.261Z,31.63
2022-11-30T15:08:34.950Z,33.67
2022-11-30T15:11:06.896Z,34.43
2022-11-30T15:13:37.846Z,31.30
2022-11-30T15:16:09.937Z,33.47
2022-11-30T15:18:39.275Z,33.90
2022-11-30T15:21:17.334Z,34.83
2022-11-30T15:23:50.658Z,32.23
2022-11-30T15:26:33.431Z,33.87
2022-11-30T15:29:22.887Z,33.20
2022-11-30T15:31:52.082Z,32.17
2022-11-30T15:34:44.057Z,31.67
2022-11-30T15:37:11.303Z,33.27
2022-11-30T15:39:38.827Z,31.87
2022-11-30T15:42:06.006Z,33.67
2022-11-30T15:44:41.472Z,34.00
2022-11-30T15:47:31.748Z,33.13
2022-11-30T15:49:58.322Z,32.47
2022-11-30T15:52:27.313Z,32.50
2022-11-30T15:54:55.278Z,33.27
2022-11-30T15:57:24.441Z,33.40
2022-11-30T16:00:24.025Z,32.73
2022-11-30T16:03:07.565Z,32.33
2022-11-30T16:05:34.058Z,30.90
2022-11-30T16:08:03.691Z,32.13
2022-11-30T16:10:36.054Z,31.90
2022-11-30T16:13:02.717Z,32.33
2022-11-30T16:15:31.368Z,31.63
2022-11-30T16:18:15.418Z,30.47
2022-11-30T16:20:43.485Z,32.33
2022-11-30T16:23:15.284Z,37.43
2022-11-30T16:25:43.477Z,32.07
2022-11-30T16:28:11.757Z,31.17
2022-11-30T16:30:39.043Z,31.60
2022-11-30T16:33:05.928Z,31.97
2022-11-30T16:35:38.929Z,32.50
2022-11-30T16:38:05.492Z,32.10
2022-11-30T16:40:37.044Z,32.33
2022-11-30T16:43:05.794Z,33.70
2022-11-30T16:45:36.542Z,32.40
2022-11-30T16:48:03.629Z,31.13
2022-11-30T16:50:32.437Z,32.67
2022-11-30T16:52:59.033Z,32.40
2022-11-30T16:55:30.188Z,33.43
2022-11-30T16:57:57.052Z,33.20
2022-11-30T17:00:23.785Z,33.87
2022-11-30T17:02:59.513Z,33.23
2022-11-30T17:05:27.216Z,33.23
2022-11-30T17:07:54.770Z,31.87
2022-11-30T17:10:21.633Z,53.57
2022-11-30T17:12:48.215Z,35.47
2022-11-30T17:15:17.422Z,34.07
2022-11-30T17:17:43.876Z,34.83
2022-11-30T17:20:11.874Z,36.57
2022-11-30T17:22:39.881Z,35.97
2022-11-30T17:25:09.701Z,37.47
2022-11-30T17:27:36.141Z,36.93
2022-11-30T17:30:02.963Z,37.93
2022-11-30T17:32:29.405Z,37.10
2022-11-30T17:34:55.866Z,36.73
2022-11-30T17:37:23.168Z,36.83
2022-11-30T17:39:50.510Z,37.73
2022-11-30T17:42:16.931Z,38.50
2022-11-30T17:44:43.388Z,39.77
2022-11-30T17:47:10.019Z,38.53
2022-11-30T17:49:36.507Z,40.43
2022-11-30T17:52:02.968Z,41.10
2022-11-30T17:54:29.518Z,41.17
2022-11-30T17:56:55.992Z,44.47
2022-11-30T17:59:22.491Z,42.43
2022-11-30T18:01:49.029Z,42.83
2022-11-30T18:04:16.005Z,45.50
2022-11-30T18:06:42.690Z,41.83
2022-11-30T18:09:09.225Z,42.67
2022-11-30T18:11:36.381Z,42.30
2022-11-30T18:14:05.442Z,44.50
2022-11-30T18:16:36.441Z,42.80
2022-11-30T18:19:11.671Z,44.37
2022-11-30T18:21:40.321Z,43.10
2022-11-30T18:24:07.226Z,44.03
2022-11-30T18:26:35.613Z,42.47
2022-11-30T18:29:02.948Z,42.23
2022-11-30T18:31:30.848Z,41.67
2022-11-30T18:34:03.121Z,42.13
2022-11-30T18:36:30.915Z,39.97
2022-11-30T18:38:57.421Z,43.13
2022-11-30T18:41:26.461Z,40.63
2022-11-30T18:43:53.658Z,41.57
2022-11-30T18:46:20.434Z,41.83
2022-11-30T18:48:51.792Z,39.53
2022-11-30T18:51:20.804Z,41.90
2022-11-30T18:53:47.659Z,39.17
2022-11-30T18:56:18.323Z,40.77
2022-11-30T18:58:45.840Z,39.67
2022-11-30T19:01:18.325Z,40.77
2022-11-30T19:03:53.697Z,38.13
2022-11-30T19:06:20.723Z,40.37
2022-11-30T19:08:48.130Z,40.57
2022-11-30T19:11:16.194Z,41.63
2022-11-30T19:13:43.307Z,40.60
2022-11-30T19:16:14.019Z,39.17
2022-11-30T19:18:40.917Z,41.17
2022-11-30T19:21:13.627Z,40.60
2022-11-30T19:23:40.735Z,38.90
2022-11-30T19:26:09.865Z,42.23
2022-11-30T19:28:37.739Z,40.20
2022-11-30T19:31:18.916Z,40.17
2022-11-30T19:33:47.682Z,41.50
2022-11-30T19:36:17.631Z,39.27
2022-11-30T19:38:44.365Z,42.33
2022-11-30T19:41:13.153Z,42.10
2022-11-30T19:43:40.346Z,40.87
2022-11-30T19:46:14.534Z,42.30
2022-11-30T19:48:41.988Z,40.37
2022-11-30T19:51:14.956Z,41.90
2022-11-30T19:53:44.267Z,42.20
2022-11-30T19:56:14.918Z,40.27
2022-11-30T19:58:45.907Z,40.33
2022-11-30T20:01:19.539Z,38.97
2022-11-30T20:03:46.224Z,39.83
2022-11-30T20:06:12.778Z,39.37
2022-11-30T20:08:39.357Z,40.13
2022-11-30T20:11:10.441Z,42.40
2022-11-30T20:13:37.505Z,39.43
2022-11-30T20:16:13.469Z,38.90
2022-11-30T20:18:45.724Z,40.30
2022-11-30T20:21:18.538Z,38.77
2022-11-30T20:23:47.208Z,41.47
2022-11-30T20:26:18.239Z,42.83
2022-11-30T20:28:46.071Z,39.43
2022-11-30T20:31:14.778Z,37.83
2022-11-30T20:33:42.113Z,39.17
2022-11-30T20:36:10.348Z,41.80
2022-11-30T20:38:37.409Z,40.87
2022-11-30T20:41:04.582Z,40.40
2022-11-30T20:43:31.253Z,39.10
2022-11-30T20:45:57.759Z,38.40
2022-11-30T20:48:24.327Z,41.03
2022-11-30T20:51:21.678Z,39.97
2022-11-30T20:53:37.460Z,40.43
2022-11-30T20:56:04.122Z,39.73
2022-11-30T20:58:30.978Z,39.53
2022-11-30T21:00:59.249Z,38.30
2022-11-30T21:03:26.151Z,40.87
2022-11-30T21:05:52.668Z,40.93
2022-11-30T21:08:19.122Z,39.53
2022-11-30T21:10:45.588Z,39.73
2022-11-30T21:13:12.038Z,40.07
2022-11-30T21:15:38.528Z,40.30
2022-11-30T21:18:05.354Z,40.47
2022-11-30T21:20:31.853Z,39.33
2022-11-30T21:22:58.279Z,41.30
2022-11-30T21:25:24.710Z,40.47
2022-11-30T21:27:52.243Z,38.93
2022-11-30T21:30:18.898Z,39.00
2022-11-30T21:32:45.349Z,39.77
2022-11-30T21:35:11.821Z,41.30
2022-11-30T21:37:38.286Z,41.03
2022-11-30T21:40:05.229Z,38.53
2022-11-30T21:42:31.651Z,40.43
2022-11-30T21:44:58.066Z,38.97
2022-11-30T21:47:24.536Z,39.37
2022-11-30T21:49:51.015Z,38.50
2022-11-30T21:52:17.455Z,40.87
2022-11-30T21:54:43.905Z,41.10
2022-11-30T21:57:10.453Z,41.70
2022-11-30T21:59:36.910Z,39.73
2022-11-30T22:02:04.222Z,41.63
2022-11-30T22:04:30.773Z,37.93
2022-11-30T22:06:57.307Z,40.47
2022-11-30T22:09:23.702Z,38.77
2022-11-30T22:11:50.191Z,40.63
2022-11-30T22:14:17.610Z,39.77
2022-11-30T22:16:44.920Z,38.60
2022-11-30T22:19:11.411Z,37.10
2022-11-30T22:21:38.243Z,37.60
2022-11-30T22:24:07.766Z,38.60
2022-11-30T22:26:36.670Z,38.87
2022-11-30T22:29:08.538Z,39.37
2022-11-30T22:31:37.911Z,39.53
2022-11-30T22:34:04.591Z,40.20
2022-11-30T22:36:33.293Z,37.33
2022-11-30T22:39:02.290Z,38.47
2022-11-30T22:41:30.002Z,37.73
2022-11-30T22:43:57.797Z,38.43
2022-11-30T22:46:26.621Z,37.23
2022-11-30T22:48:53.225Z,37.70
2022-11-30T22:51:22.630Z,40.50
2022-11-30T22:53:49.964Z,37.77
2022-11-30T22:56:25.212Z,38.03
2022-11-30T22:58:54.347Z,35.77
2022-11-30T23:01:22.785Z,37.47
2022-11-30T23:03:50.609Z,37.23
2022-11-30T23:06:19.394Z,37.10
2022-11-30T23:08:47.016Z,38.23
2022-11-30T23:11:16.949Z,38.43
2022-11-30T23:13:43.521Z,37.87
2022-11-30T23:16:11.475Z,37.10
2022-11-30T23:18:40.658Z,34.67
2022-11-30T23:21:09.702Z,37.83
2022-11-30T23:23:36.347Z,35.97
2022-11-30T23:26:22.878Z,36.20
2022-11-30T23:28:51.893Z,35.60
2022-11-30T23:31:34.313Z,34.60
2022-11-30T23:34:04.896Z,37.90
2022-11-30T23:36:32.109Z,36.00
2022-11-30T23:39:01.445Z,37.20
2022-11-30T23:41:28.384Z,36.87
2022-11-30T23:43:55.312Z,39.13
2022-11-30T23:46:22.414Z,35.93
2022-11-30T23:48:49.204Z,39.77
2022-11-30T23:51:15.746Z,36.13
2022-11-30T23:53:42.487Z,35.03
2022-11-30T23:56:13.134Z,34.40
2022-11-30T23:58:39.792Z,37.70
